Flight Track Log - Related Links

Times and Time Zones

All times are in EDT time to prevent confusion due to time zone crossing. See the GGN7283 flight status page for this flight to view local times or setup timezone preferences in your user account.

Time Position Orientation Groundspeed Altitude Reporting Facility
EDT Latitude Longitude Course Direction KTS MPH feet Rate Location/Type
Tue 06:28:49 PM 42.7278 -73.8108 224° Southwest 145 167 1,100  Level Boston Center
Tue 06:29:50 PM 42.7003 -73.8469 224° Southwest 181 208 2,500 1,482 Climbing Boston Center
Tue 06:31:39 PM 42.7236 -73.9633 285° West 197 227 5,300 1,553 Climbing Boston Center
Tue 06:32:40 PM 42.7478 -74.0206 300° West 185 213 6,900 1,513 Climbing Boston Center
Tue 06:33:38 PM 42.7783 -74.0750 307° West 185 213 8,300 1,627 Climbing Boston Center
Tue 06:34:38 PM 42.7772 -74.1458 269° West 167 192 10,100 1,636 Climbing Boston Center
Tue 06:35:39 PM 42.7803 -74.2222 273° West 195 224 11,600 1,311 Climbing Boston Center
Tue 06:36:37 PM 42.7856 -74.2931 276° West 195 224 12,700 1,311 Climbing Boston Center
Tue 06:37:38 PM 42.7903 -74.3725 275° West 206 237 14,200 1,388 Climbing Boston Center
Tue 06:38:38 PM 42.7933 -74.4489 273° West 206 237 15,500 1,218 Climbing Boston Center
Tue 06:39:51 PM 42.7978 -74.5425 274° West 206 237 16,900 1,083 Climbing Boston Center
Tue 06:40:51 PM 42.8028 -74.6133 276° West 212 244 17,900 1,041 Climbing Boston Center
Tue 06:41:52 PM 42.8050 -74.7042 272° West 218 251 19,000 1,017 Climbing Boston Center
Tue 06:42:49 PM 42.8078 -74.7806 273° West 223 257 19,900 458 Climbing Boston Center
Tue 06:43:50 PM 42.8122 -74.8658 274° West 223 257 19,900 50 Level Boston Center
Tue 06:44:50 PM 42.8164 -74.9594 274° West 235 270 20,000 50 Climbing Boston Center
Tue 06:45:51 PM 42.8228 -75.0531 275° West 235 270 20,000 -50 Level Boston Center
Tue 06:46:51 PM 42.8289 -75.1467 275° West 242 278 19,900 -50 Descending Boston Center
Tue 06:47:51 PM 42.8328 -75.2375 273° West 242 278 19,900  Level Boston Center
Tue 06:48:49 PM 42.8347 -75.3311 272° West 247 284 19,900  Level Boston Center
Tue 06:49:49 PM 42.8386 -75.4247 273° West 252 290 19,900  Level Boston Center
Tue 06:50:49 PM 42.8403 -75.5183 271° West 252 290 19,900  Level Boston Center
Tue 06:51:51 PM 42.8439 -75.6147 273° West 252 290 19,900  Level Boston Center
Tue 06:52:51 PM 42.8497 -75.7056 275° West 252 290 19,900  Level Boston Center
Tue 06:53:49 PM 42.8531 -75.7994 273° West 252 290 19,900  Level Boston Center
Tue 06:54:49 PM 42.8586 -75.8958 275° West 252 290 19,900 50 Level Boston Center
Tue 06:55:50 PM 42.8619 -75.9869 273° West 252 290 20,000  Climbing Boston Center
Tue 06:57:28 PM 42.8644 -76.1383 271° West 249 287 19,900 -38 Descending Cleveland Center
Tue 06:58:29 PM 42.8667 -76.2167 272° West 250 288 19,900  Level Toronto Center
Tue 06:59:29 PM 42.8667 -76.3167 270° West 250 288 19,900  Level Toronto Center
Tue 07:00:29 PM 42.8667 -76.4000 270° West 250 288 19,900  Level Toronto Center
Tue 07:01:29 PM 42.8667 -76.5000 270° West 240 276 19,900  Level Toronto Center
Tue 07:02:28 PM 42.8794 -76.6050 279° West 255 293 19,900  Level Cleveland Center
Tue 07:03:28 PM 42.8828 -76.6983 273° West 250 288 19,900  Level Cleveland Center
Tue 07:04:28 PM 42.8856 -76.7889 272° West 250 288 19,900  Level Cleveland Center
Tue 07:05:28 PM 42.8886 -76.8822 273° West 250 288 19,900  Level Cleveland Center
Tue 07:06:28 PM 42.8917 -76.9725 273° West 250 288 19,900  Level Cleveland Center
Tue 07:07:28 PM 42.8944 -77.0661 272° West 250 288 19,900  Level Cleveland Center
Tue 07:08:28 PM 42.8972 -77.1567 272° West 250 288 19,900  Level Cleveland Center
Tue 07:09:28 PM 42.9000 -77.2500 272° West 250 288 19,900  Level Cleveland Center
Tue 07:10:28 PM 42.9025 -77.3433 272° West 250 288 19,900 -250 Level Cleveland Center
Tue 07:11:28 PM 42.9136 -77.4392 279° West 250 288 19,400 -750 Descending Cleveland Center
Tue 07:12:28 PM 42.9369 -77.5344 289° West 256 295 18,400 -900 Descending Cleveland Center
Tue 07:13:28 PM 42.9606 -77.6439 286° West 268 308 17,600 -850 Descending Cleveland Center
Tue 07:14:28 PM 42.9797 -77.7425 285° West 273 314 16,700 -950 Descending Cleveland Center
Tue 07:15:28 PM 43.0008 -77.8436 286° West 278 320 15,700 -1,000 Descending Cleveland Center
Tue 07:16:28 PM 43.0219 -77.9422 286° West 278 320 14,700 -800 Descending Cleveland Center
Tue 07:17:28 PM 43.0431 -78.0436 286° West 278 320 14,100 -350 Descending Cleveland Center
Tue 07:18:28 PM 43.0597 -78.1394 283° West 278 320 14,000 -50 Descending Cleveland Center
Tue 07:19:28 PM 43.0783 -78.2297 286° West 272 313 14,000  Level Cleveland Center
Tue 07:20:28 PM 43.0967 -78.3200 286° West 261 300 14,000  Level Cleveland Center
Tue 07:21:28 PM 43.1172 -78.4131 287° West 256 295 14,000  Level Cleveland Center
Tue 07:22:28 PM 43.1356 -78.5064 285° West 256 295 14,000  Level Cleveland Center
Tue 07:23:28 PM 43.1519 -78.6028 283° West 261 300 14,000 -99 Level Cleveland Center
Tue 07:25:29 PM 43.1833 -78.7667 285° West 250 288 13,700 -431 Descending Toronto Center
Tue 07:26:29 PM 43.2000 -78.8500 285° West 260 299 12,700 -900 Descending Toronto Center
Tue 07:27:29 PM 43.2167 -78.9500 283° West 260 299 11,900 -1,000 Descending Toronto Center
Tue 07:28:29 PM 43.2333 -79.0667 281° West 270 311 10,700 -950 Descending Toronto Center
Tue 07:29:29 PM 43.2667 -79.1500 299° West 270 311 10,000 -800 Descending Toronto Center
Tue 07:30:29 PM 43.2833 -79.2500 283° West 270 311 9,100 -750 Descending Toronto Center
Tue 07:31:29 PM 43.3000 -79.3500 283° West 260 299 8,500 -500 Descending Toronto Center
Tue 07:32:29 PM 43.3667 -79.3833 340° North 270 311 8,100 -252 Descending Toronto Center
Tue 07:33:28 PM 43.4500 -79.4000 352° North 270 311 8,000 -50 Descending Toronto Center
Tue 07:34:28 PM 43.5167 -79.4333 340° North 260 299 8,000  Level Toronto Center
Tue 07:35:28 PM 43.5667 -79.5000 316° Northwest 260 299 8,000 -843 Level Toronto Center
Tue 07:36:29 PM 43.5500 -79.5833 255° West 240 276 6,300 -1,750 Descending Toronto Center
Tue 07:37:28 PM 43.5167 -79.6333 227° Southwest 220 253 4,500 -1,613 Descending Toronto Center
Tue 07:38:28 PM 43.5000 -79.7000 251° West 220 253 3,100 -750 Descending Toronto Center
Tue 07:39:28 PM 43.5667 -79.7000 360° North 210 242 3,000 -500 Descending Toronto Center
Tue 07:40:28 PM 43.6000 -79.6833 20° North 190 219 2,100 -992 Descending Toronto Center
Tue 07:41:29 PM 43.6333 -79.6167 55° Northeast 160 184 1,000 -800 Descending Toronto Center
Tue 07:42:28 PM 43.6500 -79.5833 55° Northeast 120 138 500 -508 Descending Toronto Center

Login

Don't have an account? Register now (free) for customized features, flight alerts, and more!